sensor_id;sensor_type;location;lat;lon;timestamp;pressure;altitude;pressure_sealevel;temperature;humidity
52735;BME280;38631;47.572;10.704;2023-04-19T00:01:29;92849.50;;;6.51;100.00
52735;BME280;38631;47.572;10.704;2023-04-19T00:03:54;92834.41;;;6.56;100.00
52735;BME280;38631;47.572;10.704;2023-04-19T00:06:22;92836.78;;;6.58;100.00
52735;BME280;38631;47.572;10.704;2023-04-19T00:08:48;92839.19;;;6.49;100.00
52735;BME280;38631;47.572;10.704;2023-04-19T00:11:14;92834.50;;;6.41;100.00
52735;BME280;38631;47.572;10.704;2023-04-19T00:13:39;92838.16;;;6.50;100.00
52735;BME280;38631;47.572;10.704;2023-04-19T00:16:05;92831.78;;;6.56;100.00
52735;BME280;38631;47.572;10.704;2023-04-19T00:18:30;92838.66;;;6.57;100.00
52735;BME280;38631;47.572;10.704;2023-04-19T00:20:56;92834.94;;;6.58;100.00
52735;BME280;38631;47.572;10.704;2023-04-19T00:23:21;92828.41;;;6.45;100.00
52735;BME280;38631;47.572;10.704;2023-04-19T00:25:48;92825.78;;;6.40;100.00
52735;BME280;38631;47.572;10.704;2023-04-19T00:28:13;92827.66;;;6.40;100.00
52735;BME280;38631;47.572;10.704;2023-04-19T00:30:39;92839.97;;;6.55;100.00
52735;BME280;38631;47.572;10.704;2023-04-19T00:33:08;92832.81;;;6.60;100.00
52735;BME280;38631;47.572;10.704;2023-04-19T00:35:40;92824.44;;;6.48;100.00
52735;BME280;38631;47.572;10.704;2023-04-19T00:38:08;92825.00;;;6.40;100.00
52735;BME280;38631;47.572;10.704;2023-04-19T00:40:35;92826.81;;;6.44;100.00
52735;BME280;38631;47.572;10.704;2023-04-19T00:43:00;92816.06;;;6.36;100.00
52735;BME280;38631;47.572;10.704;2023-04-19T00:45:26;92819.22;;;6.38;100.00
52735;BME280;38631;47.572;10.704;2023-04-19T00:47:52;92815.00;;;6.32;100.00
52735;BME280;38631;47.572;10.704;2023-04-19T00:50:17;92808.13;;;6.41;100.00
52735;BME280;38631;47.572;10.704;2023-04-19T00:52:43;92806.28;;;6.36;100.00
52735;BME280;38631;47.572;10.704;2023-04-19T00:55:10;92812.63;;;6.35;100.00
52735;BME280;38631;47.572;10.704;2023-04-19T00:57:39;92807.91;;;6.32;100.00
52735;BME280;38631;47.572;10.704;2023-04-19T01:00:05;92802.91;;;6.31;100.00
52735;BME280;38631;47.572;10.704;2023-04-19T01:02:33;92802.38;;;6.28;100.00
52735;BME280;38631;47.572;10.704;2023-04-19T01:04:58;92800.53;;;6.29;100.00
52735;BME280;38631;47.572;10.704;2023-04-19T01:07:23;92800.25;;;6.31;100.00
52735;BME280;38631;47.572;10.704;2023-04-19T01:09:50;92794.22;;;6.25;100.00
52735;BME280;38631;47.572;10.704;2023-04-19T01:12:15;92795.25;;;6.29;100.00
52735;BME280;38631;47.572;10.704;2023-04-19T01:14:40;92796.56;;;6.26;100.00
52735;BME280;38631;47.572;10.704;2023-04-19T01:17:06;92792.34;;;6.31;100.00
52735;BME280;38631;47.572;10.704;2023-04-19T01:19:32;92794.75;;;6.22;100.00
52735;BME280;38631;47.572;10.704;2023-04-19T01:21:59;92791.56;;;6.30;100.00
52735;BME280;38631;47.572;10.704;2023-04-19T01:24:24;92797.38;;;6.27;100.00
52735;BME280;38631;47.572;10.704;2023-04-19T01:26:50;92790.56;;;6.16;100.00
52735;BME280;38631;47.572;10.704;2023-04-19T01:29:15;92786.84;;;6.22;100.00
52735;BME280;38631;47.572;10.704;2023-04-19T01:31:42;92789.22;;;6.23;100.00
52735;BME280;38631;47.572;10.704;2023-04-19T01:34:08;92787.69;;;6.12;100.00
52735;BME280;38631;47.572;10.704;2023-04-19T01:36:33;92787.19;;;6.10;100.00
52735;BME280;38631;47.572;10.704;2023-04-19T01:39:05;92786.63;;;6.13;100.00
52735;BME280;38631;47.572;10.704;2023-04-19T01:41:31;92782.94;;;6.09;100.00
52735;BME280;38631;47.572;10.704;2023-04-19T01:43:56;92787.25;;;5.95;100.00
52735;BME280;38631;47.572;10.704;2023-04-19T01:46:22;92784.06;;;5.88;100.00
52735;BME280;38631;47.572;10.704;2023-04-19T01:48:47;92780.91;;;5.96;100.00
52735;BME280;38631;47.572;10.704;2023-04-19T01:51:12;92774.56;;;6.02;100.00
52735;BME280;38631;47.572;10.704;2023-04-19T01:53:43;92782.47;;;6.02;100.00
52735;BME280;38631;47.572;10.704;2023-04-19T01:56:08;92776.66;;;6.05;100.00
52735;BME280;38631;47.572;10.704;2023-04-19T01:58:33;92781.34;;;6.13;100.00
52735;BME280;38631;47.572;10.704;2023-04-19T02:00:59;92772.66;;;6.13;100.00
52735;BME280;38631;47.572;10.704;2023-04-19T02:03:24;92771.38;;;6.05;100.00
52735;BME280;38631;47.572;10.704;2023-04-19T02:05:49;92771.63;;;6.03;100.00
52735;BME280;38631;47.572;10.704;2023-04-19T02:08:16;92770.09;;;5.92;100.00
52735;BME280;38631;47.572;10.704;2023-04-19T02:10:41;92767.69;;;6.01;100.00
52735;BME280;38631;47.572;10.704;2023-04-19T02:13:07;92773.19;;;6.15;100.00
52735;BME280;38631;47.572;10.704;2023-04-19T02:15:32;92766.91;;;6.00;100.00
52735;BME280;38631;47.572;10.704;2023-04-19T02:17:57;92766.66;;;6.02;100.00
52735;BME280;38631;47.572;10.704;2023-04-19T02:20:25;92766.66;;;6.02;100.00
52735;BME280;38631;47.572;10.704;2023-04-19T02:22:50;92759.00;;;6.00;100.00
52735;BME280;38631;47.572;10.704;2023-04-19T02:25:16;92762.91;;;6.13;100.00
52735;BME280;38631;47.572;10.704;2023-04-19T02:27:43;92757.88;;;6.12;100.00
52735;BME280;38631;47.572;10.704;2023-04-19T02:30:09;92750.47;;;6.19;100.00
52735;BME280;38631;47.572;10.704;2023-04-19T02:32:34;92763.91;;;6.22;100.00
52735;BME280;38631;47.572;10.704;2023-04-19T02:35:00;92752.16;;;6.04;100.00
52735;BME280;38631;47.572;10.704;2023-04-19T02:37:25;92750.72;;;6.22;100.00
52735;BME280;38631;47.572;10.704;2023-04-19T02:39:50;92753.63;;;6.21;100.00
52735;BME280;38631;47.572;10.704;2023-04-19T02:42:16;92751.31;;;6.09;100.00
52735;BME280;38631;47.572;10.704;2023-04-19T02:44:41;92740.25;;;6.12;100.00
52735;BME280;38631;47.572;10.704;2023-04-19T02:47:06;92749.97;;;6.12;100.00
52735;BME280;38631;47.572;10.704;2023-04-19T02:49:32;92742.06;;;6.12;100.00
52735;BME280;38631;47.572;10.704;2023-04-19T02:52:00;92734.63;;;6.24;100.00
52735;BME280;38631;47.572;10.704;2023-04-19T02:54:26;92735.69;;;6.23;100.00
52735;BME280;38631;47.572;10.704;2023-04-19T02:56:51;92736.28;;;6.15;100.00
52735;BME280;38631;47.572;10.704;2023-04-19T02:59:16;92734.97;;;6.12;100.00
52735;BME280;38631;47.572;10.704;2023-04-19T03:01:41;92729.66;;;6.17;100.00
52735;BME280;38631;47.572;10.704;2023-04-19T03:04:07;92731.22;;;6.23;100.00
52735;BME280;38631;47.572;10.704;2023-04-19T03:06:32;92726.50;;;6.15;100.00
52735;BME280;38631;47.572;10.704;2023-04-19T03:08:58;92725.53;;;6.01;100.00
52735;BME280;38631;47.572;10.704;2023-04-19T03:11:23;92725.81;;;5.89;100.00
52735;BME280;38631;47.572;10.704;2023-04-19T03:13:48;92723.72;;;5.86;100.00
52735;BME280;38631;47.572;10.704;2023-04-19T03:16:14;92717.41;;;5.87;100.00
52735;BME280;38631;47.572;10.704;2023-04-19T03:18:39;92728.19;;;5.91;100.00
52735;BME280;38631;47.572;10.704;2023-04-19T03:21:04;92722.09;;;6.00;100.00
52735;BME280;38631;47.572;10.704;2023-04-19T03:23:33;92724.22;;;5.98;100.00
52735;BME280;38631;47.572;10.704;2023-04-19T03:25:58;92717.66;;;5.85;100.00
52735;BME280;38631;47.572;10.704;2023-04-19T03:28:24;92720.03;;;5.87;100.00
52735;BME280;38631;47.572;10.704;2023-04-19T03:30:49;92712.41;;;5.80;100.00
52735;BME280;38631;47.572;10.704;2023-04-19T03:33:15;92721.59;;;5.88;100.00
52735;BME280;38631;47.572;10.704;2023-04-19T03:35:40;92712.53;;;5.55;100.00
52735;BME280;38631;47.572;10.704;2023-04-19T03:38:05;92712.78;;;5.58;100.00
52735;BME280;38631;47.572;10.704;2023-04-19T03:40:36;92720.13;;;5.61;100.00
52735;BME280;38631;47.572;10.704;2023-04-19T03:43:01;92713.56;;;5.54;100.00
52735;BME280;38631;47.572;10.704;2023-04-19T03:45:27;92704.13;;;5.48;100.00
52735;BME280;38631;47.572;10.704;2023-04-19T03:47:52;92711.53;;;5.40;100.00
52735;BME280;38631;47.572;10.704;2023-04-19T03:50:17;92708.13;;;5.30;100.00
52735;BME280;38631;47.572;10.704;2023-04-19T03:52:43;92706.81;;;5.27;100.00
52735;BME280;38631;47.572;10.704;2023-04-19T03:55:09;92710.44;;;5.41;100.00
52735;BME280;38631;47.572;10.704;2023-04-19T03:57:34;92706.78;;;5.43;100.00
52735;BME280;38631;47.572;10.704;2023-04-19T04:00:00;92706.22;;;5.46;100.00
52735;BME280;38631;47.572;10.704;2023-04-19T04:02:25;92709.16;;;5.29;100.00
52735;BME280;38631;47.572;10.704;2023-04-19T04:04:54;92712.91;;;5.17;100.00
52735;BME280;38631;47.572;10.704;2023-04-19T04:07:19;92707.13;;;5.10;100.00
52735;BME280;38631;47.572;10.704;2023-04-19T04:09:46;92703.44;;;4.96;100.00
52735;BME280;38631;47.572;10.704;2023-04-19T04:12:12;92693.72;;;5.07;100.00
52735;BME280;38631;47.572;10.704;2023-04-19T04:14:37;92704.44;;;5.31;100.00
52735;BME280;38631;47.572;10.704;2023-04-19T04:17:03;92709.25;;;4.93;100.00
52735;BME280;38631;47.572;10.704;2023-04-19T04:19:28;92701.63;;;4.91;100.00
52735;BME280;38631;47.572;10.704;2023-04-19T04:21:58;92704.25;;;5.07;100.00
52735;BME280;38631;47.572;10.704;2023-04-19T04:24:23;92708.44;;;5.13;100.00
52735;BME280;38631;47.572;10.704;2023-04-19T04:26:49;92708.41;;;5.18;100.00
52735;BME280;38631;47.572;10.704;2023-04-19T04:29:15;92708.44;;;5.08;100.00
52735;BME280;38631;47.572;10.704;2023-04-19T04:31:42;92701.59;;;5.17;100.00
52735;BME280;38631;47.572;10.704;2023-04-19T04:34:17;92711.06;;;5.18;100.00
52735;BME280;38631;47.572;10.704;2023-04-19T04:36:43;92714.78;;;5.07;100.00
52735;BME280;38631;47.572;10.704;2023-04-19T04:39:09;92717.38;;;5.17;100.00
52735;BME280;38631;47.572;10.704;2023-04-19T04:41:36;92711.59;;;5.10;100.00
52735;BME280;38631;47.572;10.704;2023-04-19T04:44:04;92719.50;;;5.10;100.00
52735;BME280;38631;47.572;10.704;2023-04-19T04:46:31;92715.53;;;5.17;100.00
52735;BME280;38631;47.572;10.704;2023-04-19T04:48:57;92722.66;;;5.17;100.00
52735;BME280;38631;47.572;10.704;2023-04-19T04:51:22;92719.72;;;5.24;100.00
52735;BME280;38631;47.572;10.704;2023-04-19T04:53:47;92715.53;;;5.17;100.00
52735;BME280;38631;47.572;10.704;2023-04-19T04:56:16;92723.16;;;5.19;100.00
52735;BME280;38631;47.572;10.704;2023-04-19T04:58:43;92721.28;;;5.30;100.00
52735;BME280;38631;47.572;10.704;2023-04-19T05:01:09;92727.38;;;5.10;100.00
52735;BME280;38631;47.572;10.704;2023-04-19T05:03:34;92723.19;;;4.98;100.00
52735;BME280;38631;47.572;10.704;2023-04-19T05:06:02;92724.47;;;5.06;100.00
52735;BME280;38631;47.572;10.704;2023-04-19T05:08:27;92725.53;;;5.15;100.00
52735;BME280;38631;47.572;10.704;2023-04-19T05:10:53;92716.84;;;5.20;100.00
52735;BME280;38631;47.572;10.704;2023-04-19T05:13:18;92721.03;;;5.21;100.00
52735;BME280;38631;47.572;10.704;2023-04-19T05:15:51;92731.03;;;5.19;100.00
52735;BME280;38631;47.572;10.704;2023-04-19T05:18:20;92727.91;;;5.17;100.00
52735;BME280;38631;47.572;10.704;2023-04-19T05:20:45;92716.56;;;5.16;100.00
52735;BME280;38631;47.572;10.704;2023-04-19T05:23:11;92721.31;;;5.19;100.00
52735;BME280;38631;47.572;10.704;2023-04-19T05:25:37;92719.19;;;5.22;100.00
52735;BME280;38631;47.572;10.704;2023-04-19T05:28:28;92724.19;;;5.23;100.00
52735;BME280;38631;47.572;10.704;2023-04-19T05:30:53;92723.13;;;5.34;100.00
52735;BME280;38631;47.572;10.704;2023-04-19T05:33:19;92728.38;;;5.39;100.00
52735;BME280;38631;47.572;10.704;2023-04-19T05:36:03;92733.59;;;5.55;100.00
52735;BME280;38631;47.572;10.704;2023-04-19T05:38:29;92731.28;;;5.38;100.00
52735;BME280;38631;47.572;10.704;2023-04-19T05:40:56;92734.38;;;5.55;100.00
52735;BME280;38631;47.572;10.704;2023-04-19T05:43:21;92716.25;;;5.38;100.00
52735;BME280;38631;47.572;10.704;2023-04-19T05:45:48;92710.44;;;5.47;100.00
52735;BME280;38631;47.572;10.704;2023-04-19T05:48:17;92708.81;;;5.56;100.00
52735;BME280;38631;47.572;10.704;2023-04-19T05:50:43;92710.94;;;5.54;100.00
52735;BME280;38631;47.572;10.704;2023-04-19T05:53:10;92706.44;;;5.65;100.00
52735;BME280;38631;47.572;10.704;2023-04-19T05:55:54;92720.59;;;5.74;100.00
52735;BME280;38631;47.572;10.704;2023-04-19T05:58:20;92723.56;;;5.67;100.00
52735;BME280;38631;47.572;10.704;2023-04-19T06:00:47;92712.69;;;5.74;100.00
52735;BME280;38631;47.572;10.704;2023-04-19T06:03:14;92719.78;;;5.83;100.00
52735;BME280;38631;47.572;10.704;2023-04-19T06:05:40;92708.53;;;5.68;100.00
52735;BME280;38631;47.572;10.704;2023-04-19T06:08:05;92708.53;;;5.68;100.00
52735;BME280;38631;47.572;10.704;2023-04-19T06:10:31;92715.16;;;5.60;100.00
52735;BME280;38631;47.572;10.704;2023-04-19T06:12:58;92713.00;;;5.72;100.00
52735;BME280;38631;47.572;10.704;2023-04-19T06:15:23;92724.03;;;5.79;100.00
52735;BME280;38631;47.572;10.704;2023-04-19T06:17:50;92712.69;;;5.74;100.00
52735;BME280;38631;47.572;10.704;2023-04-19T06:20:16;92725.81;;;5.94;100.00
52735;BME280;38631;47.572;10.704;2023-04-19T06:22:43;92733.19;;;6.02;100.00
52735;BME280;38631;47.572;10.704;2023-04-19T06:25:09;92722.41;;;5.89;100.00
52735;BME280;38631;47.572;10.704;2023-04-19T06:27:35;92721.91;;;5.81;100.00
52735;BME280;38631;47.572;10.704;2023-04-19T06:30:01;92730.31;;;5.83;100.00
52735;BME280;38631;47.572;10.704;2023-04-19T06:32:27;92728.78;;;5.77;100.00
52735;BME280;38631;47.572;10.704;2023-04-19T06:34:52;92721.59;;;5.93;100.00
52735;BME280;38631;47.572;10.704;2023-04-19T06:37:19;92722.09;;;6.05;100.00
52735;BME280;38631;47.572;10.704;2023-04-19T06:39:45;92734.44;;;6.10;100.00
52735;BME280;38631;47.572;10.704;2023-04-19T06:42:13;92726.84;;;5.98;100.00
52735;BME280;38631;47.572;10.704;2023-04-19T06:44:39;92720.22;;;6.06;100.00
52735;BME280;38631;47.572;10.704;2023-04-19T06:47:07;92727.03;;;6.17;100.00
52735;BME280;38631;47.572;10.704;2023-04-19T06:49:33;92738.34;;;6.23;100.00
52735;BME280;38631;47.572;10.704;2023-04-19T06:51:59;92725.72;;;6.15;99.80
52735;BME280;38631;47.572;10.704;2023-04-19T06:54:24;92730.81;;;5.96;100.00
52735;BME280;38631;47.572;10.704;2023-04-19T06:56:50;92728.41;;;6.10;100.00
52735;BME280;38631;47.572;10.704;2023-04-19T06:59:17;92736.06;;;6.01;100.00
52735;BME280;38631;47.572;10.704;2023-04-19T07:01:44;92737.28;;;6.19;100.00
52735;BME280;38631;47.572;10.704;2023-04-19T07:04:10;92739.13;;;6.23;100.00
52735;BME280;38631;47.572;10.704;2023-04-19T07:06:36;92743.06;;;6.26;100.00
52735;BME280;38631;47.572;10.704;2023-04-19T07:09:03;92728.63;;;6.13;100.00
52735;BME280;38631;47.572;10.704;2023-04-19T07:11:29;92729.63;;;6.22;100.00
52735;BME280;38631;47.572;10.704;2023-04-19T07:13:55;92738.06;;;6.24;100.00
52735;BME280;38631;47.572;10.704;2023-04-19T07:19:46;92741.13;;;6.37;100.00
52735;BME280;38631;47.572;10.704;2023-04-19T07:22:18;92735.66;;;6.28;100.00
52735;BME280;38631;47.572;10.704;2023-04-19T07:24:44;92740.38;;;6.31;100.00
52735;BME280;38631;47.572;10.704;2023-04-19T07:27:28;92738.75;;;6.40;100.00
52735;BME280;38631;47.572;10.704;2023-04-19T07:29:53;92743.00;;;6.36;100.00
52735;BME280;38631;47.572;10.704;2023-04-19T07:32:19;92747.13;;;6.53;100.00
52735;BME280;38631;47.572;10.704;2023-04-19T07:34:45;92741.81;;;6.58;100.00
52735;BME280;38631;47.572;10.704;2023-04-19T07:37:10;92723.06;;;6.59;100.00
52735;BME280;38631;47.572;10.704;2023-04-19T07:39:40;92720.63;;;6.68;100.00
52735;BME280;38631;47.572;10.704;2023-04-19T07:42:05;92727.47;;;6.69;100.00
52735;BME280;38631;47.572;10.704;2023-04-19T07:44:31;92714.53;;;6.73;100.00
52735;BME280;38631;47.572;10.704;2023-04-19T07:46:58;92715.03;;;6.75;100.00
52735;BME280;38631;47.572;10.704;2023-04-19T07:49:24;92724.97;;;6.88;100.00
52735;BME280;38631;47.572;10.704;2023-04-19T07:51:49;92709.56;;;6.66;100.00
52735;BME280;38631;47.572;10.704;2023-04-19T07:54:15;92712.22;;;6.61;100.00
52735;BME280;38631;47.572;10.704;2023-04-19T07:56:42;92708.09;;;6.84;100.00
52735;BME280;38631;47.572;10.704;2023-04-19T07:59:07;92701.19;;;6.88;100.00
52735;BME280;38631;47.572;10.704;2023-04-19T08:01:33;92692.72;;;6.91;100.00
52735;BME280;38631;47.572;10.704;2023-04-19T08:04:01;92696.38;;;6.95;100.00
52735;BME280;38631;47.572;10.704;2023-04-19T08:10:11;92718.59;;;6.89;100.00
52735;BME280;38631;47.572;10.704;2023-04-19T08:20:24;92712.41;;;7.33;100.00
52735;BME280;38631;47.572;10.704;2023-04-19T08:23:00;92702.63;;;7.33;100.00
52735;BME280;38631;47.572;10.704;2023-04-19T08:25:25;92694.28;;;7.21;100.00
52735;BME280;38631;47.572;10.704;2023-04-19T08:31:14;92701.09;;;7.51;100.00
52735;BME280;38631;47.572;10.704;2023-04-19T08:37:19;92705.66;;;7.46;99.81
52735;BME280;38631;47.572;10.704;2023-04-19T08:39:45;92692.00;;;7.39;99.75
52735;BME280;38631;47.572;10.704;2023-04-19T08:42:10;92699.63;;;7.64;100.00
52735;BME280;38631;47.572;10.704;2023-04-19T08:44:36;92696.44;;;7.43;100.00
52735;BME280;38631;47.572;10.704;2023-04-19T08:47:04;92700.25;;;7.32;99.39
52735;BME280;38631;47.572;10.704;2023-04-19T08:49:59;92697.44;;;7.47;98.96
52735;BME280;38631;47.572;10.704;2023-04-19T08:52:44;92693.56;;;7.40;99.28
52735;BME280;38631;47.572;10.704;2023-04-19T08:55:10;92688.72;;;7.23;99.56
52735;BME280;38631;47.572;10.704;2023-04-19T09:01:07;92698.69;;;7.55;98.90
52735;BME280;38631;47.572;10.704;2023-04-19T09:06:56;92688.13;;;7.55;97.94
52735;BME280;38631;47.572;10.704;2023-04-19T09:09:24;92676.25;;;7.52;97.18
52735;BME280;38631;47.572;10.704;2023-04-19T09:11:51;92684.41;;;7.56;94.22
52735;BME280;38631;47.572;10.704;2023-04-19T09:14:18;92669.63;;;7.55;95.99
52735;BME280;38631;47.572;10.704;2023-04-19T09:16:47;92669.91;;;7.53;96.82
52735;BME280;38631;47.572;10.704;2023-04-19T09:19:25;92671.19;;;7.56;94.73
52735;BME280;38631;47.572;10.704;2023-04-19T09:22:11;92665.78;;;7.42;93.41
52735;BME280;38631;47.572;10.704;2023-04-19T09:24:37;92662.81;;;7.49;93.76
52735;BME280;38631;47.572;10.704;2023-04-19T09:27:03;92666.81;;;7.46;93.16
52735;BME280;38631;47.572;10.704;2023-04-19T09:29:30;92669.69;;;7.50;94.13
52735;BME280;38631;47.572;10.704;2023-04-19T09:32:11;92671.94;;;7.38;95.47
52735;BME280;38631;47.572;10.704;2023-04-19T09:34:57;92679.81;;;7.43;95.94
52735;BME280;38631;47.572;10.704;2023-04-19T09:37:25;92674.72;;;7.46;97.17
52735;BME280;38631;47.572;10.704;2023-04-19T09:39:51;92675.75;;;7.50;97.16
52735;BME280;38631;47.572;10.704;2023-04-19T09:42:23;92665.72;;;7.47;99.19
52735;BME280;38631;47.572;10.704;2023-04-19T09:45:09;92665.19;;;7.26;100.00
52735;BME280;38631;47.572;10.704;2023-04-19T09:47:36;92659.38;;;7.24;100.00
52735;BME280;38631;47.572;10.704;2023-04-19T09:50:06;92666.97;;;7.31;100.00
52735;BME280;38631;47.572;10.704;2023-04-19T09:52:33;92660.13;;;7.06;100.00
52735;BME280;38631;47.572;10.704;2023-04-19T09:55:04;92661.91;;;7.10;100.00
52735;BME280;38631;47.572;10.704;2023-04-19T09:57:32;92653.81;;;7.02;100.00
52735;BME280;38631;47.572;10.704;2023-04-19T10:00:00;92655.56;;;7.11;100.00
52735;BME280;38631;47.572;10.704;2023-04-19T10:02:33;92650.13;;;7.03;100.00
52735;BME280;38631;47.572;10.704;2023-04-19T10:05:06;92655.09;;;7.04;100.00
52735;BME280;38631;47.572;10.704;2023-04-19T10:07:35;92643.91;;;7.18;100.00
52735;BME280;38631;47.572;10.704;2023-04-19T10:10:02;92641.44;;;6.97;100.00
52735;BME280;38631;47.572;10.704;2023-04-19T10:12:30;92646.44;;;6.99;100.00
52735;BME280;38631;47.572;10.704;2023-04-19T10:14:57;92645.78;;;6.88;100.00
52735;BME280;38631;47.572;10.704;2023-04-19T10:17:23;92655.41;;;7.03;100.00
52735;BME280;38631;47.572;10.704;2023-04-19T10:19:56;92642.72;;;7.05;100.00
52735;BME280;38631;47.572;10.704;2023-04-19T10:22:26;92644.66;;;6.94;100.00
52735;BME280;38631;47.572;10.704;2023-04-19T10:25:26;92648.47;;;7.07;100.00
52735;BME280;38631;47.572;10.704;2023-04-19T10:27:52;92642.53;;;7.20;100.00
52735;BME280;38631;47.572;10.704;2023-04-19T10:30:27;92622.47;;;6.95;99.78
52735;BME280;38631;47.572;10.704;2023-04-19T10:32:54;92630.81;;;7.07;100.00
52735;BME280;38631;47.572;10.704;2023-04-19T10:35:21;92639.53;;;7.27;100.00
52735;BME280;38631;47.572;10.704;2023-04-19T10:40:55;92636.34;;;7.54;98.68
52735;BME280;38631;47.572;10.704;2023-04-19T10:43:33;92630.66;;;7.66;97.68
52735;BME280;38631;47.572;10.704;2023-04-19T10:46:08;92631.66;;;7.89;96.92
52735;BME280;38631;47.572;10.704;2023-04-19T10:48:36;92623.06;;;7.97;98.40
52735;BME280;38631;47.572;10.704;2023-04-19T10:51:16;92629.78;;;7.89;98.52
52735;BME280;38631;47.572;10.704;2023-04-19T10:53:48;92626.16;;;7.85;97.82
52735;BME280;38631;47.572;10.704;2023-04-19T10:59:11;92617.50;;;7.98;97.05
52735;BME280;38631;47.572;10.704;2023-04-19T11:02:00;92613.22;;;8.03;96.60
52735;BME280;38631;47.572;10.704;2023-04-19T11:07:04;92605.31;;;8.03;96.45
52735;BME280;38631;47.572;10.704;2023-04-19T11:09:35;92609.31;;;8.00;97.63
52735;BME280;38631;47.572;10.704;2023-04-19T11:12:09;92605.41;;;7.92;97.42
52735;BME280;38631;47.572;10.704;2023-04-19T11:17:18;92596.63;;;7.97;97.96
52735;BME280;38631;47.572;10.704;2023-04-19T11:20:04;92603.28;;;7.75;96.99
52735;BME280;38631;47.572;10.704;2023-04-19T11:22:40;92599.13;;;7.69;97.12
52735;BME280;38631;47.572;10.704;2023-04-19T11:27:50;92586.97;;;7.49;96.54
52735;BME280;38631;47.572;10.704;2023-04-19T11:30:21;92591.34;;;7.59;97.26
52735;BME280;38631;47.572;10.704;2023-04-19T11:32:56;92592.63;;;7.62;96.39
52735;BME280;38631;47.572;10.704;2023-04-19T11:35:26;92586.06;;;7.59;96.40
52735;BME280;38631;47.572;10.704;2023-04-19T11:37:53;92584.94;;;7.65;96.04
52735;BME280;38631;47.572;10.704;2023-04-19T11:40:20;92586.38;;;7.57;96.04
52735;BME280;38631;47.572;10.704;2023-04-19T11:42:53;92579.84;;;7.50;96.26
52735;BME280;38631;47.572;10.704;2023-04-19T11:47:50;92575.34;;;7.50;96.43
52735;BME280;38631;47.572;10.704;2023-04-19T11:55:44;92572.53;;;7.42;98.36
52735;BME280;38631;47.572;10.704;2023-04-19T11:58:32;92568.13;;;7.56;98.35
52735;BME280;38631;47.572;10.704;2023-04-19T12:01:19;92558.78;;;7.64;98.51
52735;BME280;38631;47.572;10.704;2023-04-19T12:03:52;92562.06;;;7.55;98.99
52735;BME280;38631;47.572;10.704;2023-04-19T12:06:23;92552.69;;;7.44;100.00
52735;BME280;38631;47.572;10.704;2023-04-19T12:08:50;92566.91;;;7.48;100.00
52735;BME280;38631;47.572;10.704;2023-04-19T12:11:17;92555.72;;;7.56;100.00
52735;BME280;38631;47.572;10.704;2023-04-19T12:13:44;92564.34;;;7.43;100.00
52735;BME280;38631;47.572;10.704;2023-04-19T12:16:10;92554.91;;;7.37;100.00
52735;BME280;38631;47.572;10.704;2023-04-19T12:18:49;92557.06;;;7.35;100.00
52735;BME280;38631;47.572;10.704;2023-04-19T12:21:29;92552.75;;;7.39;100.00
52735;BME280;38631;47.572;10.704;2023-04-19T12:23:58;92555.13;;;7.41;100.00
52735;BME280;38631;47.572;10.704;2023-04-19T12:26:25;92547.72;;;7.43;100.00
52735;BME280;38631;47.572;10.704;2023-04-19T12:28:53;92545.69;;;7.34;100.00
52735;BME280;38631;47.572;10.704;2023-04-19T12:31:18;92543.19;;;7.24;100.00
52735;BME280;38631;47.572;10.704;2023-04-19T12:33:46;92541.34;;;7.25;100.00
52735;BME280;38631;47.572;10.704;2023-04-19T12:36:11;92549.13;;;7.35;100.00
52735;BME280;38631;47.572;10.704;2023-04-19T12:39:05;92542.34;;;7.29;100.00
52735;BME280;38631;47.572;10.704;2023-04-19T12:41:31;92547.56;;;7.34;100.00
52735;BME280;38631;47.572;10.704;2023-04-19T12:43:56;92544.25;;;7.23;100.00
52735;BME280;38631;47.572;10.704;2023-04-19T12:46:22;92535.63;;;7.18;100.00
52735;BME280;38631;47.572;10.704;2023-04-19T12:49:13;92543.91;;;7.30;100.00
52735;BME280;38631;47.572;10.704;2023-04-19T12:51:39;92535.13;;;7.34;100.00
52735;BME280;38631;47.572;10.704;2023-04-19T12:54:04;92528.41;;;7.23;100.00
52735;BME280;38631;47.572;10.704;2023-04-19T12:56:32;92526.34;;;7.20;100.00
52735;BME280;38631;47.572;10.704;2023-04-19T12:59:20;92533.13;;;7.26;100.00
52735;BME280;38631;47.572;10.704;2023-04-19T13:01:46;92511.63;;;7.14;100.00
52735;BME280;38631;47.572;10.704;2023-04-19T13:04:12;92513.06;;;7.25;100.00
52735;BME280;38631;47.572;10.704;2023-04-19T13:06:38;92527.19;;;7.34;100.00
52735;BME280;38631;47.572;10.704;2023-04-19T13:09:06;92520.56;;;7.37;100.00
52735;BME280;38631;47.572;10.704;2023-04-19T13:11:32;92516.00;;;7.43;100.00
52735;BME280;38631;47.572;10.704;2023-04-19T13:13:58;92509.00;;;7.33;100.00
52735;BME280;38631;47.572;10.704;2023-04-19T13:16:24;92508.44;;;7.36;100.00
52735;BME280;38631;47.572;10.704;2023-04-19T13:18:53;92515.00;;;7.39;100.00
52735;BME280;38631;47.572;10.704;2023-04-19T13:21:54;92514.00;;;7.34;100.00
52735;BME280;38631;47.572;10.704;2023-04-19T13:24:20;92498.78;;;7.26;100.00
52735;BME280;38631;47.572;10.704;2023-04-19T13:26:50;92506.13;;;7.29;100.00
52735;BME280;38631;47.572;10.704;2023-04-19T13:29:19;92495.56;;;7.29;100.00
52735;BME280;38631;47.572;10.704;2023-04-19T13:31:45;92498.22;;;7.10;100.00
52735;BME280;38631;47.572;10.704;2023-04-19T13:34:15;92492.09;;;7.15;100.00
52735;BME280;38631;47.572;10.704;2023-04-19T13:36:41;92500.38;;;7.27;100.00
52735;BME280;38631;47.572;10.704;2023-04-19T13:39:07;92487.72;;;7.05;100.00
52735;BME280;38631;47.572;10.704;2023-04-19T13:41:32;92494.13;;;6.99;100.00
52735;BME280;38631;47.572;10.704;2023-04-19T13:43:58;92500.25;;;6.95;100.00
52735;BME280;38631;47.572;10.704;2023-04-19T13:46:23;92489.66;;;7.00;100.00
52735;BME280;38631;47.572;10.704;2023-04-19T13:48:49;92487.03;;;6.95;100.00